sensor_id;sensor_type;location;lat;lon;timestamp;temperature;humidity
1992;DHT22;997;48.448;8.924;2022-12-24T04:03:14;9.70;99.90
1992;DHT22;997;48.448;8.924;2022-12-24T04:05:39;9.80;99.90
1992;DHT22;997;48.448;8.924;2022-12-24T04:08:05;9.80;99.90
1992;DHT22;997;48.448;8.924;2022-12-24T04:10:30;9.80;99.90
1992;DHT22;997;48.448;8.924;2022-12-24T04:12:56;10.00;99.90
1992;DHT22;997;48.448;8.924;2022-12-24T04:15:22;9.90;99.90
1992;DHT22;997;48.448;8.924;2022-12-24T04:17:47;9.90;99.90
1992;DHT22;997;48.448;8.924;2022-12-24T04:20:13;9.80;99.90
1992;DHT22;997;48.448;8.924;2022-12-24T04:22:39;9.80;99.90
1992;DHT22;997;48.448;8.924;2022-12-24T04:25:05;9.80;99.90
1992;DHT22;997;48.448;8.924;2022-12-24T04:27:31;9.80;99.90
1992;DHT22;997;48.448;8.924;2022-12-24T04:29:57;9.70;99.90
1992;DHT22;997;48.448;8.924;2022-12-24T04:32:25;9.70;99.90
1992;DHT22;997;48.448;8.924;2022-12-24T04:34:51;9.80;99.90
1992;DHT22;997;48.448;8.924;2022-12-24T04:37:16;9.70;99.90
1992;DHT22;997;48.448;8.924;2022-12-24T04:39:42;9.80;99.90
1992;DHT22;997;48.448;8.924;2022-12-24T04:42:08;9.70;99.90
1992;DHT22;997;48.448;8.924;2022-12-24T04:44:33;9.70;99.90
1992;DHT22;997;48.448;8.924;2022-12-24T04:46:59;9.70;99.90
1992;DHT22;997;48.448;8.924;2022-12-24T04:49:25;9.60;99.90
1992;DHT22;997;48.448;8.924;2022-12-24T04:51:50;9.60;99.90
1992;DHT22;997;48.448;8.924;2022-12-24T04:54:16;9.60;99.90
1992;DHT22;997;48.448;8.924;2022-12-24T04:56:41;9.60;99.90
1992;DHT22;997;48.448;8.924;2022-12-24T04:59:07;9.50;99.90
1992;DHT22;997;48.448;8.924;2022-12-24T05:01:33;9.50;99.90
1992;DHT22;997;48.448;8.924;2022-12-24T05:03:59;9.50;99.90
1992;DHT22;997;48.448;8.924;2022-12-24T05:06:28;9.50;99.90
1992;DHT22;997;48.448;8.924;2022-12-24T05:08:55;9.60;99.90
1992;DHT22;997;48.448;8.924;2022-12-24T05:11:22;9.60;99.90
1992;DHT22;997;48.448;8.924;2022-12-24T05:13:47;9.70;99.90
1992;DHT22;997;48.448;8.924;2022-12-24T05:16:15;9.60;99.90
1992;DHT22;997;48.448;8.924;2022-12-24T05:18:41;9.70;99.90
1992;DHT22;997;48.448;8.924;2022-12-24T05:21:13;9.60;99.90
1992;DHT22;997;48.448;8.924;2022-12-24T05:23:39;9.60;99.90
1992;DHT22;997;48.448;8.924;2022-12-24T05:26:56;9.60;99.90
1992;DHT22;997;48.448;8.924;2022-12-24T05:29:22;9.50;99.90
1992;DHT22;997;48.448;8.924;2022-12-24T05:31:48;9.50;99.90
1992;DHT22;997;48.448;8.924;2022-12-24T05:34:15;9.60;99.90
1992;DHT22;997;48.448;8.924;2022-12-24T05:36:43;9.60;99.90
1992;DHT22;997;48.448;8.924;2022-12-24T05:39:15;9.60;99.90
1992;DHT22;997;48.448;8.924;2022-12-24T05:41:41;9.70;99.90
1992;DHT22;997;48.448;8.924;2022-12-24T05:44:07;9.70;99.90
1992;DHT22;997;48.448;8.924;2022-12-24T05:46:33;9.80;99.90
1992;DHT22;997;48.448;8.924;2022-12-24T05:48:59;9.90;99.90
1992;DHT22;997;48.448;8.924;2022-12-24T05:51:24;9.90;99.90
1992;DHT22;997;48.448;8.924;2022-12-24T05:53:50;9.80;99.90
1992;DHT22;997;48.448;8.924;2022-12-24T05:56:19;9.90;99.90
1992;DHT22;997;48.448;8.924;2022-12-24T05:58:45;9.90;99.90
1992;DHT22;997;48.448;8.924;2022-12-24T06:01:12;9.90;99.90
1992;DHT22;997;48.448;8.924;2022-12-24T06:03:38;9.90;99.90
1992;DHT22;997;48.448;8.924;2022-12-24T06:06:09;9.90;99.90
1992;DHT22;997;48.448;8.924;2022-12-24T06:08:35;9.80;99.90
1992;DHT22;997;48.448;8.924;2022-12-24T06:11:04;9.70;99.90
1992;DHT22;997;48.448;8.924;2022-12-24T06:13:30;9.60;99.90
1992;DHT22;997;48.448;8.924;2022-12-24T06:15:57;9.60;99.90
1992;DHT22;997;48.448;8.924;2022-12-24T06:18:23;9.50;99.90
1992;DHT22;997;48.448;8.924;2022-12-24T06:20:53;9.50;99.90
1992;DHT22;997;48.448;8.924;2022-12-24T06:23:20;9.50;99.90
1992;DHT22;997;48.448;8.924;2022-12-24T06:25:46;9.50;99.90
1992;DHT22;997;48.448;8.924;2022-12-24T06:28:13;9.40;99.90
1992;DHT22;997;48.448;8.924;2022-12-24T06:30:39;9.30;99.90
1992;DHT22;997;48.448;8.924;2022-12-24T06:33:04;9.40;99.90
1992;DHT22;997;48.448;8.924;2022-12-24T06:35:31;9.30;99.90
1992;DHT22;997;48.448;8.924;2022-12-24T06:37:57;9.40;99.90
1992;DHT22;997;48.448;8.924;2022-12-24T06:40:25;9.40;99.90
1992;DHT22;997;48.448;8.924;2022-12-24T06:42:51;9.30;99.90
1992;DHT22;997;48.448;8.924;2022-12-24T06:45:16;9.30;99.90
1992;DHT22;997;48.448;8.924;2022-12-24T06:47:42;9.30;99.90
1992;DHT22;997;48.448;8.924;2022-12-24T06:50:09;9.30;99.90
1992;DHT22;997;48.448;8.924;2022-12-24T06:52:35;9.30;99.90
1992;DHT22;997;48.448;8.924;2022-12-24T06:55:01;9.20;99.90
1992;DHT22;997;48.448;8.924;2022-12-24T06:57:27;9.20;99.90
1992;DHT22;997;48.448;8.924;2022-12-24T06:59:52;9.20;99.90
1992;DHT22;997;48.448;8.924;2022-12-24T07:02:18;9.20;99.90
1992;DHT22;997;48.448;8.924;2022-12-24T07:04:44;9.20;99.90
1992;DHT22;997;48.448;8.924;2022-12-24T07:07:09;9.20;99.90
1992;DHT22;997;48.448;8.924;2022-12-24T07:09:35;9.20;99.90
1992;DHT22;997;48.448;8.924;2022-12-24T07:12:01;9.20;99.90
1992;DHT22;997;48.448;8.924;2022-12-24T07:14:26;9.20;99.90
1992;DHT22;997;48.448;8.924;2022-12-24T07:16:52;9.20;99.90
1992;DHT22;997;48.448;8.924;2022-12-24T07:19:18;9.20;99.90
1992;DHT22;997;48.448;8.924;2022-12-24T07:21:43;9.20;99.90
1992;DHT22;997;48.448;8.924;2022-12-24T07:24:09;9.30;99.90
1992;DHT22;997;48.448;8.924;2022-12-24T07:26:34;9.30;99.90
1992;DHT22;997;48.448;8.924;2022-12-24T07:29:00;9.30;99.90
1992;DHT22;997;48.448;8.924;2022-12-24T07:31:26;9.30;99.90
1992;DHT22;997;48.448;8.924;2022-12-24T07:33:51;9.40;99.90
1992;DHT22;997;48.448;8.924;2022-12-24T07:36:19;9.40;99.90
1992;DHT22;997;48.448;8.924;2022-12-24T07:38:45;9.50;99.90
1992;DHT22;997;48.448;8.924;2022-12-24T07:41:11;9.50;99.90
1992;DHT22;997;48.448;8.924;2022-12-24T07:43:37;9.50;99.90
1992;DHT22;997;48.448;8.924;2022-12-24T07:46:03;9.50;99.90
1992;DHT22;997;48.448;8.924;2022-12-24T07:48:30;9.60;99.90
1992;DHT22;997;48.448;8.924;2022-12-24T07:50:56;9.60;99.90
1992;DHT22;997;48.448;8.924;2022-12-24T07:53:23;9.60;99.90
1992;DHT22;997;48.448;8.924;2022-12-24T07:55:49;9.60;99.90
1992;DHT22;997;48.448;8.924;2022-12-24T07:58:15;9.60;99.90
1992;DHT22;997;48.448;8.924;2022-12-24T08:00:41;9.60;99.90
1992;DHT22;997;48.448;8.924;2022-12-24T08:03:06;9.60;99.90
1992;DHT22;997;48.448;8.924;2022-12-24T08:05:34;9.60;99.90
1992;DHT22;997;48.448;8.924;2022-12-24T08:08:00;9.70;99.90
1992;DHT22;997;48.448;8.924;2022-12-24T08:10:25;9.70;99.90
1992;DHT22;997;48.448;8.924;2022-12-24T08:12:51;9.70;99.90
1992;DHT22;997;48.448;8.924;2022-12-24T08:15:17;9.70;99.90
1992;DHT22;997;48.448;8.924;2022-12-24T08:17:43;9.80;99.90
1992;DHT22;997;48.448;8.924;2022-12-24T08:20:09;9.80;99.90
1992;DHT22;997;48.448;8.924;2022-12-24T08:22:35;9.70;99.90
1992;DHT22;997;48.448;8.924;2022-12-24T08:25:01;9.70;99.90
1992;DHT22;997;48.448;8.924;2022-12-24T08:27:27;9.70;99.90
1992;DHT22;997;48.448;8.924;2022-12-24T08:29:52;9.70;99.90
1992;DHT22;997;48.448;8.924;2022-12-24T08:32:18;9.60;99.90
1992;DHT22;997;48.448;8.924;2022-12-24T08:34:43;9.60;99.90
1992;DHT22;997;48.448;8.924;2022-12-24T08:37:09;9.70;99.90
1992;DHT22;997;48.448;8.924;2022-12-24T08:39:35;9.80;99.90
1992;DHT22;997;48.448;8.924;2022-12-24T08:42:00;9.70;99.90
1992;DHT22;997;48.448;8.924;2022-12-24T08:44:26;9.70;99.90
1992;DHT22;997;48.448;8.924;2022-12-24T08:46:52;9.60;99.90
1992;DHT22;997;48.448;8.924;2022-12-24T08:49:17;9.70;99.90
1992;DHT22;997;48.448;8.924;2022-12-24T08:51:43;9.90;99.90
1992;DHT22;997;48.448;8.924;2022-12-24T08:54:09;9.90;99.90
1992;DHT22;997;48.448;8.924;2022-12-24T08:56:34;10.00;99.90
1992;DHT22;997;48.448;8.924;2022-12-24T08:59:00;10.00;99.90
1992;DHT22;997;48.448;8.924;2022-12-24T09:01:26;10.00;99.90
1992;DHT22;997;48.448;8.924;2022-12-24T09:03:52;10.10;99.90
1992;DHT22;997;48.448;8.924;2022-12-24T09:06:17;10.10;99.90
1992;DHT22;997;48.448;8.924;2022-12-24T09:08:43;10.10;99.90
1992;DHT22;997;48.448;8.924;2022-12-24T09:11:15;10.10;99.90
1992;DHT22;997;48.448;8.924;2022-12-24T09:13:41;10.20;99.90
1992;DHT22;997;48.448;8.924;2022-12-24T09:16:08;10.20;99.90
1992;DHT22;997;48.448;8.924;2022-12-24T09:18:33;10.20;99.90
1992;DHT22;997;48.448;8.924;2022-12-24T09:21:05;10.20;99.90
1992;DHT22;997;48.448;8.924;2022-12-24T09:23:31;10.30;99.90
1992;DHT22;997;48.448;8.924;2022-12-24T09:25:58;10.40;99.90
1992;DHT22;997;48.448;8.924;2022-12-24T09:28:24;10.50;99.90
1992;DHT22;997;48.448;8.924;2022-12-24T09:30:58;10.60;99.90
1992;DHT22;997;48.448;8.924;2022-12-24T09:33:24;10.60;99.90
1992;DHT22;997;48.448;8.924;2022-12-24T09:35:51;10.60;99.90
1992;DHT22;997;48.448;8.924;2022-12-24T09:38:18;10.70;99.90
1992;DHT22;997;48.448;8.924;2022-12-24T09:40:44;10.80;99.90
1992;DHT22;997;48.448;8.924;2022-12-24T09:43:18;11.00;99.90
1992;DHT22;997;48.448;8.924;2022-12-24T09:48:31;11.10;99.90
1992;DHT22;997;48.448;8.924;2022-12-24T09:51:03;11.10;99.90
1992;DHT22;997;48.448;8.924;2022-12-24T09:59:01;11.20;99.90
1992;DHT22;997;48.448;8.924;2022-12-24T10:01:32;11.10;99.90
1992;DHT22;997;48.448;8.924;2022-12-24T10:04:27;11.00;99.90
1992;DHT22;997;48.448;8.924;2022-12-24T10:12:17;10.90;99.90
1992;DHT22;997;48.448;8.924;2022-12-24T10:15:16;11.00;99.90
1992;DHT22;997;48.448;8.924;2022-12-24T10:20:49;11.00;99.90
1992;DHT22;997;48.448;8.924;2022-12-24T10:23:26;11.10;99.90
1992;DHT22;997;48.448;8.924;2022-12-24T10:31:07;10.90;99.90
1992;DHT22;997;48.448;8.924;2022-12-24T10:33:39;10.90;99.90
1992;DHT22;997;48.448;8.924;2022-12-24T10:36:17;11.00;99.90
1992;DHT22;997;48.448;8.924;2022-12-24T10:38:45;11.10;99.90
1992;DHT22;997;48.448;8.924;2022-12-24T10:41:12;11.10;99.90
1992;DHT22;997;48.448;8.924;2022-12-24T10:43:39;11.10;99.90
1992;DHT22;997;48.448;8.924;2022-12-24T10:46:36;11.10;99.90
1992;DHT22;997;48.448;8.924;2022-12-24T10:49:05;11.30;99.90
1992;DHT22;997;48.448;8.924;2022-12-24T10:54:16;11.30;99.90
1992;DHT22;997;48.448;8.924;2022-12-24T10:56:48;11.30;99.90
1992;DHT22;997;48.448;8.924;2022-12-24T11:02:25;11.30;99.90
1992;DHT22;997;48.448;8.924;2022-12-24T11:04:52;11.30;99.90
1992;DHT22;997;48.448;8.924;2022-12-24T11:07:20;11.50;99.90
1992;DHT22;997;48.448;8.924;2022-12-24T11:10:05;11.40;99.90
1992;DHT22;997;48.448;8.924;2022-12-24T11:12:34;11.50;99.90
1992;DHT22;997;48.448;8.924;2022-12-24T11:15:30;11.60;99.90
1992;DHT22;997;48.448;8.924;2022-12-24T11:18:01;11.70;99.90
1992;DHT22;997;48.448;8.924;2022-12-24T11:20:30;11.80;99.90
1992;DHT22;997;48.448;8.924;2022-12-24T11:22:57;11.90;99.90
1992;DHT22;997;48.448;8.924;2022-12-24T11:25:27;11.90;99.90
1992;DHT22;997;48.448;8.924;2022-12-24T11:27:54;11.90;99.90
1992;DHT22;997;48.448;8.924;2022-12-24T11:30:31;11.90;99.90
1992;DHT22;997;48.448;8.924;2022-12-24T11:35:26;11.90;99.90
1992;DHT22;997;48.448;8.924;2022-12-24T11:40:40;11.90;99.90
1992;DHT22;997;48.448;8.924;2022-12-24T11:43:14;12.00;99.90
1992;DHT22;997;48.448;8.924;2022-12-24T11:45:56;12.10;99.90
1992;DHT22;997;48.448;8.924;2022-12-24T11:48:31;11.90;99.90
1992;DHT22;997;48.448;8.924;2022-12-24T11:51:05;11.90;99.90
1992;DHT22;997;48.448;8.924;2022-12-24T11:53:44;11.80;99.90
1992;DHT22;997;48.448;8.924;2022-12-24T11:56:43;11.90;99.90
1992;DHT22;997;48.448;8.924;2022-12-24T12:05:02;12.00;99.90
1992;DHT22;997;48.448;8.924;2022-12-24T12:07:31;12.00;99.90
1992;DHT22;997;48.448;8.924;2022-12-24T12:13:04;12.00;99.90
1992;DHT22;997;48.448;8.924;2022-12-24T12:15:47;11.80;99.90
1992;DHT22;997;48.448;8.924;2022-12-24T12:18:19;11.80;99.90
1992;DHT22;997;48.448;8.924;2022-12-24T12:20:55;11.80;99.90
1992;DHT22;997;48.448;8.924;2022-12-24T12:25:54;11.90;99.90
1992;DHT22;997;48.448;8.924;2022-12-24T12:36:57;12.00;99.90
1992;DHT22;997;48.448;8.924;2022-12-24T12:39:24;12.00;99.90
1992;DHT22;997;48.448;8.924;2022-12-24T12:47:58;12.30;99.90
1992;DHT22;997;48.448;8.924;2022-12-24T12:50:38;12.30;99.90
1992;DHT22;997;48.448;8.924;2022-12-24T13:01:02;11.80;99.90
1992;DHT22;997;48.448;8.924;2022-12-24T13:15:18;11.70;99.90
1992;DHT22;997;48.448;8.924;2022-12-24T13:23:17;11.60;99.90
1992;DHT22;997;48.448;8.924;2022-12-24T13:25:44;11.60;99.90
1992;DHT22;997;48.448;8.924;2022-12-24T13:28:34;11.70;99.90
1992;DHT22;997;48.448;8.924;2022-12-24T13:36:12;11.80;99.90
1992;DHT22;997;48.448;8.924;2022-12-24T13:49:30;12.30;99.90
1992;DHT22;997;48.448;8.924;2022-12-24T13:54:37;12.40;99.90
1992;DHT22;997;48.448;8.924;2022-12-24T14:02:36;12.60;99.90
1992;DHT22;997;48.448;8.924;2022-12-24T14:05:06;12.70;99.90
1992;DHT22;997;48.448;8.924;2022-12-24T14:07:34;12.80;99.90
1992;DHT22;997;48.448;8.924;2022-12-24T14:10:01;12.80;99.90
1992;DHT22;997;48.448;8.924;2022-12-24T14:12:44;12.90;99.90
1992;DHT22;997;48.448;8.924;2022-12-24T14:18:23;13.00;99.90
1992;DHT22;997;48.448;8.924;2022-12-24T14:20:50;12.90;99.90
1992;DHT22;997;48.448;8.924;2022-12-24T14:26:17;13.10;99.90
1992;DHT22;997;48.448;8.924;2022-12-24T14:31:24;12.70;99.90
1992;DHT22;997;48.448;8.924;2022-12-24T14:33:50;12.80;99.90
1992;DHT22;997;48.448;8.924;2022-12-24T14:36:21;12.90;99.90
1992;DHT22;997;48.448;8.924;2022-12-24T14:38:47;13.00;99.90
1992;DHT22;997;48.448;8.924;2022-12-24T14:44:39;12.80;99.90
1992;DHT22;997;48.448;8.924;2022-12-24T14:47:40;12.50;99.90
1992;DHT22;997;48.448;8.924;2022-12-24T14:50:29;12.50;99.90
1992;DHT22;997;48.448;8.924;2022-12-24T14:53:16;12.30;99.90
1992;DHT22;997;48.448;8.924;2022-12-24T14:55:46;12.10;99.90
1992;DHT22;997;48.448;8.924;2022-12-24T15:00:51;12.00;99.90
1992;DHT22;997;48.448;8.924;2022-12-24T15:03:18;11.90;99.90
1992;DHT22;997;48.448;8.924;2022-12-24T15:05:50;11.90;99.90
1992;DHT22;997;48.448;8.924;2022-12-24T15:08:20;11.90;99.90
1992;DHT22;997;48.448;8.924;2022-12-24T15:10:51;11.70;99.90
1992;DHT22;997;48.448;8.924;2022-12-24T15:13:38;11.60;99.90
1992;DHT22;997;48.448;8.924;2022-12-24T15:16:08;11.60;99.90
1992;DHT22;997;48.448;8.924;2022-12-24T15:18:43;11.40;99.90
1992;DHT22;997;48.448;8.924;2022-12-24T15:21:19;11.30;99.90
1992;DHT22;997;48.448;8.924;2022-12-24T15:23:51;11.40;99.90
1992;DHT22;997;48.448;8.924;2022-12-24T15:26:31;11.40;99.90
1992;DHT22;997;48.448;8.924;2022-12-24T15:28:59;11.30;99.90
1992;DHT22;997;48.448;8.924;2022-12-24T15:31:26;11.30;99.90
1992;DHT22;997;48.448;8.924;2022-12-24T15:33:54;11.30;99.90
1992;DHT22;997;48.448;8.924;2022-12-24T15:36:34;11.20;99.90
1992;DHT22;997;48.448;8.924;2022-12-24T15:39:06;11.20;99.90
1992;DHT22;997;48.448;8.924;2022-12-24T15:41:38;11.30;99.90
1992;DHT22;997;48.448;8.924;2022-12-24T15:44:25;11.30;99.90
1992;DHT22;997;48.448;8.924;2022-12-24T15:46:57;11.40;99.90
1992;DHT22;997;48.448;8.924;2022-12-24T15:49:23;11.40;99.90
1992;DHT22;997;48.448;8.924;2022-12-24T15:51:50;11.40;99.90
1992;DHT22;997;48.448;8.924;2022-12-24T15:54:19;11.40;99.90
1992;DHT22;997;48.448;8.924;2022-12-24T15:56:46;11.30;99.90
1992;DHT22;997;48.448;8.924;2022-12-24T16:01:44;11.20;99.90
1992;DHT22;997;48.448;8.924;2022-12-24T16:04:20;11.10;99.90
1992;DHT22;997;48.448;8.924;2022-12-24T16:07:00;11.00;99.90
1992;DHT22;997;48.448;8.924;2022-12-24T16:09:44;11.00;99.90
1992;DHT22;997;48.448;8.924;2022-12-24T16:12:22;11.00;99.90
1992;DHT22;997;48.448;8.924;2022-12-24T16:15:12;11.00;99.90
1992;DHT22;997;48.448;8.924;2022-12-24T16:17:39;11.00;99.90
1992;DHT22;997;48.448;8.924;2022-12-24T16:20:06;11.00;99.90
1992;DHT22;997;48.448;8.924;2022-12-24T16:23:00;10.80;99.90
1992;DHT22;997;48.448;8.924;2022-12-24T16:25:30;10.90;99.90
1992;DHT22;997;48.448;8.924;2022-12-24T16:27:55;10.80;99.90
1992;DHT22;997;48.448;8.924;2022-12-24T16:30:21;10.80;99.90
1992;DHT22;997;48.448;8.924;2022-12-24T16:32:47;10.70;99.90
1992;DHT22;997;48.448;8.924;2022-12-24T16:35:26;10.60;99.90
1992;DHT22;997;48.448;8.924;2022-12-24T16:37:53;10.50;99.90
1992;DHT22;997;48.448;8.924;2022-12-24T16:40:19;10.50;99.90
1992;DHT22;997;48.448;8.924;2022-12-24T16:42:45;10.50;99.90
1992;DHT22;997;48.448;8.924;2022-12-24T16:45:29;10.60;99.90
1992;DHT22;997;48.448;8.924;2022-12-24T16:47:58;10.70;99.90
1992;DHT22;997;48.448;8.924;2022-12-24T16:50:24;10.60;99.90
1992;DHT22;997;48.448;8.924;2022-12-24T16:52:50;10.70;99.90
1992;DHT22;997;48.448;8.924;2022-12-24T16:55:16;10.60;99.90
1992;DHT22;997;48.448;8.924;2022-12-24T16:57:42;10.60;99.90
1992;DHT22;997;48.448;8.924;2022-12-24T17:00:19;10.50;99.90
1992;DHT22;997;48.448;8.924;2022-12-24T17:02:46;10.50;99.90
1992;DHT22;997;48.448;8.924;2022-12-24T17:05:12;10.50;99.90
1992;DHT22;997;48.448;8.924;2022-12-24T17:07:38;10.40;99.90
1992;DHT22;997;48.448;8.924;2022-12-24T17:10:04;10.40;99.90
1992;DHT22;997;48.448;8.924;2022-12-24T17:12:30;10.40;99.90
1992;DHT22;997;48.448;8.924;2022-12-24T17:14:56;10.40;99.90
1992;DHT22;997;48.448;8.924;2022-12-24T17:17:24;10.30;99.90
1992;DHT22;997;48.448;8.924;2022-12-24T17:19:50;10.30;99.90
1992;DHT22;997;48.448;8.924;2022-12-24T17:22:16;10.30;99.90
1992;DHT22;997;48.448;8.924;2022-12-24T17:24:42;10.40;99.90
1992;DHT22;997;48.448;8.924;2022-12-24T17:27:08;10.40;99.90
1992;DHT22;997;48.448;8.924;2022-12-24T17:29:34;10.50;99.90
1992;DHT22;997;48.448;8.924;2022-12-24T17:31:59;10.40;99.90
1992;DHT22;997;48.448;8.924;2022-12-24T17:34:25;10.50;99.90
1992;DHT22;997;48.448;8.924;2022-12-24T17:36:51;10.50;99.90
1992;DHT22;997;48.448;8.924;2022-12-24T17:39:17;10.60;99.90
1992;DHT22;997;48.448;8.924;2022-12-24T17:41:43;10.50;99.90
1992;DHT22;997;48.448;8.924;2022-12-24T17:44:13;10.50;99.90
1992;DHT22;997;48.448;8.924;2022-12-24T17:46:39;10.60;99.90
1992;DHT22;997;48.448;8.924;2022-12-24T17:49:05;10.50;99.90
1992;DHT22;997;48.448;8.924;2022-12-24T17:51:31;10.50;99.90
1992;DHT22;997;48.448;8.924;2022-12-24T17:54:01;10.30;99.90
1992;DHT22;997;48.448;8.924;2022-12-24T17:56:27;10.20;99.90
1992;DHT22;997;48.448;8.924;2022-12-24T17:58:53;10.20;99.90
1992;DHT22;997;48.448;8.924;2022-12-24T18:01:23;10.30;99.90
1992;DHT22;997;48.448;8.924;2022-12-24T18:03:50;10.30;99.90
1992;DHT22;997;48.448;8.924;2022-12-24T18:06:18;10.30;99.90
1992;DHT22;997;48.448;8.924;2022-12-24T18:08:45;10.30;99.90
1992;DHT22;997;48.448;8.924;2022-12-24T18:11:12;10.40;99.90
1992;DHT22;997;48.448;8.924;2022-12-24T18:13:38;10.40;99.90
1992;DHT22;997;48.448;8.924;2022-12-24T18:18:47;10.40;99.90
1992;DHT22;997;48.448;8.924;2022-12-24T18:21:15;10.40;99.90
1992;DHT22;997;48.448;8.924;2022-12-24T18:23:42;10.40;99.90
1992;DHT22;997;48.448;8.924;2022-12-24T18:26:09;10.40;99.90
1992;DHT22;997;48.448;8.924;2022-12-24T18:28:35;10.50;99.90
1992;DHT22;997;48.448;8.924;2022-12-24T18:31:04;10.50;99.90
1992;DHT22;997;48.448;8.924;2022-12-24T18:33:31;10.50;99.90
1992;DHT22;997;48.448;8.924;2022-12-24T18:35:57;10.50;99.90
1992;DHT22;997;48.448;8.924;2022-12-24T18:38:23;10.60;99.90
1992;DHT22;997;48.448;8.924;2022-12-24T18:40:49;10.60;99.90
1992;DHT22;997;48.448;8.924;2022-12-24T18:43:15;10.50;99.90
1992;DHT22;997;48.448;8.924;2022-12-24T18:45:42;10.50;99.90
1992;DHT22;997;48.448;8.924;2022-12-24T18:48:09;10.50;99.90
1992;DHT22;997;48.448;8.924;2022-12-24T18:50:35;10.50;99.90
1992;DHT22;997;48.448;8.924;2022-12-24T18:53:02;10.50;99.90
1992;DHT22;997;48.448;8.924;2022-12-24T18:55:28;10.40;99.90
1992;DHT22;997;48.448;8.924;2022-12-24T18:57:53;10.40;99.90
1992;DHT22;997;48.448;8.924;2022-12-24T19:00:19;10.50;99.90
1992;DHT22;997;48.448;8.924;2022-12-24T19:02:45;10.50;99.90
1992;DHT22;997;48.448;8.924;2022-12-24T19:05:11;10.50;99.90
1992;DHT22;997;48.448;8.924;2022-12-24T19:07:39;10.50;99.90
1992;DHT22;997;48.448;8.924;2022-12-24T19:10:06;10.50;99.90
1992;DHT22;997;48.448;8.924;2022-12-24T19:12:32;10.60;99.90
1992;DHT22;997;48.448;8.924;2022-12-24T19:14:58;10.60;99.90
1992;DHT22;997;48.448;8.924;2022-12-24T19:17:23;10.60;99.90
1992;DHT22;997;48.448;8.924;2022-12-24T19:19:52;10.60;99.90
1992;DHT22;997;48.448;8.924;2022-12-24T19:22:17;10.60;99.90
1992;DHT22;997;48.448;8.924;2022-12-24T19:24:43;10.50;99.90
1992;DHT22;997;48.448;8.924;2022-12-24T19:27:09;10.50;99.90
1992;DHT22;997;48.448;8.924;2022-12-24T19:29:35;10.40;99.90
1992;DHT22;997;48.448;8.924;2022-12-24T19:32:00;10.40;99.90
1992;DHT22;997;48.448;8.924;2022-12-24T19:34:27;10.30;99.90
1992;DHT22;997;48.448;8.924;2022-12-24T19:36:53;10.30;99.90
1992;DHT22;997;48.448;8.924;2022-12-24T19:39:18;10.30;99.90
1992;DHT22;997;48.448;8.924;2022-12-24T19:41:44;10.30;99.90
1992;DHT22;997;48.448;8.924;2022-12-24T19:44:10;10.30;99.90
1992;DHT22;997;48.448;8.924;2022-12-24T19:46:36;10.20;99.90
1992;DHT22;997;48.448;8.924;2022-12-24T19:49:04;10.20;99.90
1992;DHT22;997;48.448;8.924;2022-12-24T19:51:31;10.10;99.90
1992;DHT22;997;48.448;8.924;2022-12-24T19:53:58;10.10;99.90
1992;DHT22;997;48.448;8.924;2022-12-24T19:56:25;10.10;99.90
1992;DHT22;997;48.448;8.924;2022-12-24T19:58:51;10.10;99.90
1992;DHT22;997;48.448;8.924;2022-12-24T20:01:22;10.10;99.90
1992;DHT22;997;48.448;8.924;2022-12-24T20:03:50;10.20;99.90
1992;DHT22;997;48.448;8.924;2022-12-24T20:06:18;10.20;99.90
1992;DHT22;997;48.448;8.924;2022-12-24T20:08:44;10.20;99.90
1992;DHT22;997;48.448;8.924;2022-12-24T20:11:12;10.20;99.90
1992;DHT22;997;48.448;8.924;2022-12-24T20:13:39;10.20;99.90
1992;DHT22;997;48.448;8.924;2022-12-24T20:16:10;10.30;99.90
1992;DHT22;997;48.448;8.924;2022-12-24T20:18:36;10.30;99.90
1992;DHT22;997;48.448;8.924;2022-12-24T20:21:04;10.30;99.90
1992;DHT22;997;48.448;8.924;2022-12-24T20:23:30;10.30;99.90
1992;DHT22;997;48.448;8.924;2022-12-24T20:26:00;10.20;99.90
1992;DHT22;997;48.448;8.924;2022-12-24T20:28:27;10.20;99.90
1992;DHT22;997;48.448;8.924;2022-12-24T20:30:54;10.10;99.90
1992;DHT22;997;48.448;8.924;2022-12-24T20:33:20;10.00;99.90
1992;DHT22;997;48.448;8.924;2022-12-24T20:35:46;10.00;99.90
1992;DHT22;997;48.448;8.924;2022-12-24T20:38:12;9.90;99.90
1992;DHT22;997;48.448;8.924;2022-12-24T20:40:42;9.90;99.90
1992;DHT22;997;48.448;8.924;2022-12-24T20:43:08;9.80;99.90
1992;DHT22;997;48.448;8.924;2022-12-24T20:45:34;9.80;99.90
1992;DHT22;997;48.448;8.924;2022-12-24T20:48:00;9.90;99.90
1992;DHT22;997;48.448;8.924;2022-12-24T20:50:26;9.90;99.90
1992;DHT22;997;48.448;8.924;2022-12-24T20:52:52;10.00;99.90
1992;DHT22;997;48.448;8.924;2022-12-24T20:55:19;10.00;99.90
1992;DHT22;997;48.448;8.924;2022-12-24T20:57:49;10.10;99.90
1992;DHT22;997;48.448;8.924;2022-12-24T21:00:17;10.20;99.90
1992;DHT22;997;48.448;8.924;2022-12-24T21:02:44;10.20;99.90
1992;DHT22;997;48.448;8.924;2022-12-24T21:05:10;10.20;99.90
1992;DHT22;997;48.448;8.924;2022-12-24T21:07:35;10.30;99.90
1992;DHT22;997;48.448;8.924;2022-12-24T21:10:07;10.30;99.90
1992;DHT22;997;48.448;8.924;2022-12-24T21:12:33;10.40;99.90
1992;DHT22;997;48.448;8.924;2022-12-24T21:15:20;10.40;99.90
1992;DHT22;997;48.448;8.924;2022-12-24T21:17:47;10.30;99.90
1992;DHT22;997;48.448;8.924;2022-12-24T21:20:13;10.30;99.90
1992;DHT22;997;48.448;8.924;2022-12-24T21:22:39;10.30;99.90
1992;DHT22;997;48.448;8.924;2022-12-24T21:25:06;10.40;99.90
1992;DHT22;997;48.448;8.924;2022-12-24T21:27:32;10.40;99.90
1992;DHT22;997;48.448;8.924;2022-12-24T21:29:58;10.20;99.90
1992;DHT22;997;48.448;8.924;2022-12-24T21:32:24;10.20;99.90
1992;DHT22;997;48.448;8.924;2022-12-24T21:34:49;10.20;99.90
1992;DHT22;997;48.448;8.924;2022-12-24T21:37:15;10.10;99.90
1992;DHT22;997;48.448;8.924;2022-12-24T21:39:41;10.10;99.90
1992;DHT22;997;48.448;8.924;2022-12-24T21:42:07;10.10;99.90
1992;DHT22;997;48.448;8.924;2022-12-24T21:44:37;10.20;99.90
1992;DHT22;997;48.448;8.924;2022-12-24T21:47:02;10.20;99.90
1992;DHT22;997;48.448;8.924;2022-12-24T21:49:29;10.20;99.90
1992;DHT22;997;48.448;8.924;2022-12-24T21:52:13;10.30;99.90
1992;DHT22;997;48.448;8.924;2022-12-24T21:54:39;10.30;99.90
1992;DHT22;997;48.448;8.924;2022-12-24T21:57:06;10.20;99.90
1992;DHT22;997;48.448;8.924;2022-12-24T21:59:52;10.20;99.90
1992;DHT22;997;48.448;8.924;2022-12-24T22:02:19;10.20;99.90
1992;DHT22;997;48.448;8.924;2022-12-24T22:04:47;10.20;99.90
1992;DHT22;997;48.448;8.924;2022-12-24T22:07:24;10.10;99.90
1992;DHT22;997;48.448;8.924;2022-12-24T22:10:11;10.00;99.90
1992;DHT22;997;48.448;8.924;2022-12-24T22:12:58;10.00;99.90
1992;DHT22;997;48.448;8.924;2022-12-24T22:15:24;10.00;99.90
1992;DHT22;997;48.448;8.924;2022-12-24T22:17:51;10.10;99.90
1992;DHT22;997;48.448;8.924;2022-12-24T22:20:17;10.10;99.90
1992;DHT22;997;48.448;8.924;2022-12-24T22:22:43;10.10;99.90
1992;DHT22;997;48.448;8.924;2022-12-24T22:25:08;10.20;99.90
1992;DHT22;997;48.448;8.924;2022-12-24T22:27:34;10.30;99.90
1992;DHT22;997;48.448;8.924;2022-12-24T22:29:59;10.40;99.90
